sensor_id;sensor_type;location;lat;lon;timestamp;temperature;humidity
11700;DHT22;5906;51.660;6.674;2023-07-30T00:00:10;15.90;99.90
11700;DHT22;5906;51.660;6.674;2023-07-30T00:02:37;15.80;99.90
11700;DHT22;5906;51.660;6.674;2023-07-30T00:05:05;15.70;99.90
11700;DHT22;5906;51.660;6.674;2023-07-30T00:07:32;15.70;99.90
11700;DHT22;5906;51.660;6.674;2023-07-30T00:09:59;15.70;99.90
11700;DHT22;5906;51.660;6.674;2023-07-30T00:12:26;15.70;99.90
11700;DHT22;5906;51.660;6.674;2023-07-30T00:14:53;15.60;99.90
11700;DHT22;5906;51.660;6.674;2023-07-30T00:17:20;15.60;99.90
11700;DHT22;5906;51.660;6.674;2023-07-30T00:19:47;15.60;99.90
11700;DHT22;5906;51.660;6.674;2023-07-30T00:22:13;15.50;99.90
11700;DHT22;5906;51.660;6.674;2023-07-30T00:24:40;15.50;99.90
11700;DHT22;5906;51.660;6.674;2023-07-30T00:27:07;15.40;99.90
11700;DHT22;5906;51.660;6.674;2023-07-30T00:29:34;15.40;99.90
11700;DHT22;5906;51.660;6.674;2023-07-30T00:32:01;15.30;99.90
11700;DHT22;5906;51.660;6.674;2023-07-30T00:34:28;15.20;99.90
11700;DHT22;5906;51.660;6.674;2023-07-30T00:36:56;15.20;99.90
11700;DHT22;5906;51.660;6.674;2023-07-30T00:39:23;15.10;99.90
11700;DHT22;5906;51.660;6.674;2023-07-30T00:41:50;15.10;99.90
11700;DHT22;5906;51.660;6.674;2023-07-30T00:44:17;15.10;99.90
11700;DHT22;5906;51.660;6.674;2023-07-30T00:46:44;15.00;99.90
11700;DHT22;5906;51.660;6.674;2023-07-30T00:49:12;15.00;99.90
11700;DHT22;5906;51.660;6.674;2023-07-30T00:51:40;14.90;99.90
11700;DHT22;5906;51.660;6.674;2023-07-30T00:54:08;15.00;99.90
11700;DHT22;5906;51.660;6.674;2023-07-30T00:56:36;14.90;99.90
11700;DHT22;5906;51.660;6.674;2023-07-30T00:59:03;14.90;99.90
11700;DHT22;5906;51.660;6.674;2023-07-30T01:01:33;14.90;99.90
11700;DHT22;5906;51.660;6.674;2023-07-30T01:04:01;14.80;99.90
11700;DHT22;5906;51.660;6.674;2023-07-30T01:06:29;14.80;99.90
11700;DHT22;5906;51.660;6.674;2023-07-30T01:08:56;14.70;99.90
11700;DHT22;5906;51.660;6.674;2023-07-30T01:11:23;14.70;99.90
11700;DHT22;5906;51.660;6.674;2023-07-30T01:13:50;14.60;99.90
11700;DHT22;5906;51.660;6.674;2023-07-30T01:16:17;14.60;99.90
11700;DHT22;5906;51.660;6.674;2023-07-30T01:18:44;14.60;99.90
11700;DHT22;5906;51.660;6.674;2023-07-30T01:21:13;14.50;99.90
11700;DHT22;5906;51.660;6.674;2023-07-30T01:23:40;14.50;99.90
11700;DHT22;5906;51.660;6.674;2023-07-30T01:26:22;14.50;99.90
11700;DHT22;5906;51.660;6.674;2023-07-30T01:28:54;14.50;99.90
11700;DHT22;5906;51.660;6.674;2023-07-30T01:31:25;14.50;99.90
11700;DHT22;5906;51.660;6.674;2023-07-30T01:33:56;14.50;99.90
11700;DHT22;5906;51.660;6.674;2023-07-30T01:36:23;14.50;99.90
11700;DHT22;5906;51.660;6.674;2023-07-30T01:38:51;14.50;99.90
11700;DHT22;5906;51.660;6.674;2023-07-30T01:41:19;14.40;99.90
11700;DHT22;5906;51.660;6.674;2023-07-30T01:43:46;14.40;99.90
11700;DHT22;5906;51.660;6.674;2023-07-30T01:46:13;14.40;99.90
11700;DHT22;5906;51.660;6.674;2023-07-30T01:48:40;14.30;99.90
11700;DHT22;5906;51.660;6.674;2023-07-30T01:51:07;14.40;99.90
11700;DHT22;5906;51.660;6.674;2023-07-30T01:53:34;14.30;99.90
11700;DHT22;5906;51.660;6.674;2023-07-30T01:56:01;14.30;99.90
11700;DHT22;5906;51.660;6.674;2023-07-30T01:58:28;14.30;99.90
11700;DHT22;5906;51.660;6.674;2023-07-30T02:00:56;14.30;99.90
11700;DHT22;5906;51.660;6.674;2023-07-30T02:03:24;14.30;99.90
11700;DHT22;5906;51.660;6.674;2023-07-30T02:05:52;14.20;99.90
11700;DHT22;5906;51.660;6.674;2023-07-30T02:08:19;14.20;99.90
11700;DHT22;5906;51.660;6.674;2023-07-30T02:10:55;14.20;99.90
11700;DHT22;5906;51.660;6.674;2023-07-30T02:13:22;14.10;99.90
11700;DHT22;5906;51.660;6.674;2023-07-30T02:15:49;14.10;99.90
11700;DHT22;5906;51.660;6.674;2023-07-30T02:18:16;14.10;99.90
11700;DHT22;5906;51.660;6.674;2023-07-30T02:20:43;14.10;99.90
11700;DHT22;5906;51.660;6.674;2023-07-30T02:23:16;14.10;99.90
11700;DHT22;5906;51.660;6.674;2023-07-30T02:25:44;14.00;99.90
11700;DHT22;5906;51.660;6.674;2023-07-30T02:28:11;14.00;99.90
11700;DHT22;5906;51.660;6.674;2023-07-30T02:30:43;14.00;99.90
11700;DHT22;5906;51.660;6.674;2023-07-30T02:33:10;14.10;99.90
11700;DHT22;5906;51.660;6.674;2023-07-30T02:35:37;14.00;99.90
11700;DHT22;5906;51.660;6.674;2023-07-30T02:38:04;14.00;99.90
11700;DHT22;5906;51.660;6.674;2023-07-30T02:40:31;13.90;99.90
11700;DHT22;5906;51.660;6.674;2023-07-30T02:42:58;13.90;99.90
11700;DHT22;5906;51.660;6.674;2023-07-30T02:45:25;13.90;99.90
11700;DHT22;5906;51.660;6.674;2023-07-30T02:47:52;13.80;99.90
11700;DHT22;5906;51.660;6.674;2023-07-30T02:50:20;13.90;99.90
11700;DHT22;5906;51.660;6.674;2023-07-30T02:52:47;13.80;99.90
11700;DHT22;5906;51.660;6.674;2023-07-30T02:55:14;13.80;99.90
11700;DHT22;5906;51.660;6.674;2023-07-30T02:57:42;13.70;99.90
11700;DHT22;5906;51.660;6.674;2023-07-30T03:00:10;13.70;99.90
11700;DHT22;5906;51.660;6.674;2023-07-30T03:02:38;13.70;99.90
11700;DHT22;5906;51.660;6.674;2023-07-30T03:05:05;13.70;99.90
11700;DHT22;5906;51.660;6.674;2023-07-30T03:07:32;13.60;99.90
11700;DHT22;5906;51.660;6.674;2023-07-30T03:09:59;13.60;99.90
11700;DHT22;5906;51.660;6.674;2023-07-30T03:12:26;13.60;99.90
11700;DHT22;5906;51.660;6.674;2023-07-30T03:14:53;13.60;99.90
11700;DHT22;5906;51.660;6.674;2023-07-30T03:17:20;13.60;99.90
11700;DHT22;5906;51.660;6.674;2023-07-30T03:19:47;13.50;99.90
11700;DHT22;5906;51.660;6.674;2023-07-30T03:22:14;13.40;99.90
11700;DHT22;5906;51.660;6.674;2023-07-30T03:24:41;13.40;99.90
11700;DHT22;5906;51.660;6.674;2023-07-30T03:27:08;13.50;99.90
11700;DHT22;5906;51.660;6.674;2023-07-30T03:29:35;13.60;99.90
11700;DHT22;5906;51.660;6.674;2023-07-30T03:32:02;13.60;99.90
11700;DHT22;5906;51.660;6.674;2023-07-30T03:34:29;13.60;99.90
11700;DHT22;5906;51.660;6.674;2023-07-30T03:36:56;13.60;99.90
11700;DHT22;5906;51.660;6.674;2023-07-30T03:39:26;13.60;99.90
11700;DHT22;5906;51.660;6.674;2023-07-30T03:41:53;13.60;99.90
11700;DHT22;5906;51.660;6.674;2023-07-30T03:44:21;13.60;99.90
11700;DHT22;5906;51.660;6.674;2023-07-30T03:46:48;13.70;99.90
11700;DHT22;5906;51.660;6.674;2023-07-30T03:49:17;13.70;99.90
11700;DHT22;5906;51.660;6.674;2023-07-30T03:51:45;13.70;99.90
11700;DHT22;5906;51.660;6.674;2023-07-30T03:54:12;13.70;99.90
11700;DHT22;5906;51.660;6.674;2023-07-30T03:56:42;13.80;99.90
11700;DHT22;5906;51.660;6.674;2023-07-30T03:59:09;13.80;99.90
11700;DHT22;5906;51.660;6.674;2023-07-30T04:01:36;13.90;99.90
11700;DHT22;5906;51.660;6.674;2023-07-30T04:04:05;13.90;99.90
11700;DHT22;5906;51.660;6.674;2023-07-30T04:06:32;14.00;99.90
11700;DHT22;5906;51.660;6.674;2023-07-30T04:08:59;14.10;99.90
11700;DHT22;5906;51.660;6.674;2023-07-30T04:11:27;14.00;99.90
11700;DHT22;5906;51.660;6.674;2023-07-30T04:13:54;14.20;99.90
11700;DHT22;5906;51.660;6.674;2023-07-30T04:16:20;14.20;99.90
11700;DHT22;5906;51.660;6.674;2023-07-30T04:18:47;14.20;99.90
11700;DHT22;5906;51.660;6.674;2023-07-30T04:21:14;14.30;99.90
11700;DHT22;5906;51.660;6.674;2023-07-30T04:23:42;14.40;99.90
11700;DHT22;5906;51.660;6.674;2023-07-30T04:26:09;14.40;99.90
11700;DHT22;5906;51.660;6.674;2023-07-30T04:28:36;14.40;99.90
11700;DHT22;5906;51.660;6.674;2023-07-30T04:31:04;14.50;99.90
11700;DHT22;5906;51.660;6.674;2023-07-30T04:33:31;14.60;99.90
11700;DHT22;5906;51.660;6.674;2023-07-30T04:35:58;14.60;99.90
11700;DHT22;5906;51.660;6.674;2023-07-30T04:38:25;14.60;99.90
11700;DHT22;5906;51.660;6.674;2023-07-30T04:40:52;14.70;99.90
11700;DHT22;5906;51.660;6.674;2023-07-30T04:43:19;14.80;99.90
11700;DHT22;5906;51.660;6.674;2023-07-30T04:45:46;14.80;99.90
11700;DHT22;5906;51.660;6.674;2023-07-30T04:48:13;14.90;99.90
11700;DHT22;5906;51.660;6.674;2023-07-30T04:50:41;14.90;99.90
11700;DHT22;5906;51.660;6.674;2023-07-30T04:53:09;15.00;99.90
11700;DHT22;5906;51.660;6.674;2023-07-30T04:55:36;15.10;99.90
11700;DHT22;5906;51.660;6.674;2023-07-30T04:58:02;15.10;99.90
11700;DHT22;5906;51.660;6.674;2023-07-30T05:00:30;15.10;99.90
11700;DHT22;5906;51.660;6.674;2023-07-30T05:02:57;15.10;99.90
11700;DHT22;5906;51.660;6.674;2023-07-30T05:05:24;15.20;99.90
11700;DHT22;5906;51.660;6.674;2023-07-30T05:07:51;15.20;99.90
11700;DHT22;5906;51.660;6.674;2023-07-30T05:10:19;15.30;99.90
11700;DHT22;5906;51.660;6.674;2023-07-30T05:12:46;15.40;99.90
11700;DHT22;5906;51.660;6.674;2023-07-30T05:15:12;15.50;99.90
11700;DHT22;5906;51.660;6.674;2023-07-30T05:17:39;15.50;99.90
11700;DHT22;5906;51.660;6.674;2023-07-30T05:20:07;15.50;99.90
11700;DHT22;5906;51.660;6.674;2023-07-30T05:22:34;15.50;99.90
11700;DHT22;5906;51.660;6.674;2023-07-30T05:25:01;15.50;99.90
11700;DHT22;5906;51.660;6.674;2023-07-30T05:27:28;15.50;99.90
11700;DHT22;5906;51.660;6.674;2023-07-30T05:29:55;15.60;99.90
11700;DHT22;5906;51.660;6.674;2023-07-30T05:32:23;15.70;99.90
11700;DHT22;5906;51.660;6.674;2023-07-30T05:34:50;15.70;99.90
11700;DHT22;5906;51.660;6.674;2023-07-30T05:37:17;15.80;99.90
11700;DHT22;5906;51.660;6.674;2023-07-30T05:39:44;15.90;99.90
11700;DHT22;5906;51.660;6.674;2023-07-30T05:42:11;15.90;99.90
11700;DHT22;5906;51.660;6.674;2023-07-30T05:44:38;15.90;99.90
11700;DHT22;5906;51.660;6.674;2023-07-30T05:47:05;15.90;99.90
11700;DHT22;5906;51.660;6.674;2023-07-30T05:49:32;16.00;99.90
11700;DHT22;5906;51.660;6.674;2023-07-30T05:51:59;16.00;99.90
11700;DHT22;5906;51.660;6.674;2023-07-30T05:54:26;16.00;99.90
11700;DHT22;5906;51.660;6.674;2023-07-30T05:56:53;16.10;99.90
11700;DHT22;5906;51.660;6.674;2023-07-30T05:59:20;16.10;99.90
11700;DHT22;5906;51.660;6.674;2023-07-30T06:01:49;16.10;99.90
11700;DHT22;5906;51.660;6.674;2023-07-30T06:04:16;16.10;99.90
11700;DHT22;5906;51.660;6.674;2023-07-30T06:06:43;16.10;99.90
11700;DHT22;5906;51.660;6.674;2023-07-30T06:09:11;16.10;99.90
11700;DHT22;5906;51.660;6.674;2023-07-30T06:11:39;16.10;99.90
11700;DHT22;5906;51.660;6.674;2023-07-30T06:14:06;16.20;99.90
11700;DHT22;5906;51.660;6.674;2023-07-30T06:16:33;16.20;99.90
11700;DHT22;5906;51.660;6.674;2023-07-30T06:19:00;16.20;99.90
11700;DHT22;5906;51.660;6.674;2023-07-30T06:21:27;16.20;99.90
11700;DHT22;5906;51.660;6.674;2023-07-30T06:23:54;16.20;99.90
11700;DHT22;5906;51.660;6.674;2023-07-30T06:26:21;16.30;99.90
11700;DHT22;5906;51.660;6.674;2023-07-30T06:28:48;16.30;99.90
11700;DHT22;5906;51.660;6.674;2023-07-30T06:31:15;16.40;99.90
11700;DHT22;5906;51.660;6.674;2023-07-30T06:33:43;16.40;99.90
11700;DHT22;5906;51.660;6.674;2023-07-30T06:36:10;16.50;99.90
11700;DHT22;5906;51.660;6.674;2023-07-30T06:38:36;16.50;99.90
11700;DHT22;5906;51.660;6.674;2023-07-30T06:41:04;16.60;99.90
11700;DHT22;5906;51.660;6.674;2023-07-30T06:43:31;16.70;99.90
11700;DHT22;5906;51.660;6.674;2023-07-30T06:45:58;16.80;99.90
11700;DHT22;5906;51.660;6.674;2023-07-30T06:48:26;16.90;99.90
11700;DHT22;5906;51.660;6.674;2023-07-30T06:50:53;16.90;99.90
11700;DHT22;5906;51.660;6.674;2023-07-30T06:53:20;17.10;99.90
11700;DHT22;5906;51.660;6.674;2023-07-30T06:55:47;17.20;99.90
11700;DHT22;5906;51.660;6.674;2023-07-30T06:58:14;17.30;99.90
11700;DHT22;5906;51.660;6.674;2023-07-30T07:00:41;17.40;99.90
11700;DHT22;5906;51.660;6.674;2023-07-30T07:03:09;17.40;99.90
11700;DHT22;5906;51.660;6.674;2023-07-30T07:05:36;17.50;99.90
11700;DHT22;5906;51.660;6.674;2023-07-30T07:08:03;17.50;99.90
11700;DHT22;5906;51.660;6.674;2023-07-30T07:10:30;17.50;99.90
11700;DHT22;5906;51.660;6.674;2023-07-30T07:12:57;17.60;99.90
11700;DHT22;5906;51.660;6.674;2023-07-30T07:15:25;17.60;99.90
11700;DHT22;5906;51.660;6.674;2023-07-30T07:17:55;17.50;99.90
11700;DHT22;5906;51.660;6.674;2023-07-30T07:20:23;17.70;99.90
11700;DHT22;5906;51.660;6.674;2023-07-30T07:22:51;17.60;99.90
11700;DHT22;5906;51.660;6.674;2023-07-30T07:25:19;17.70;99.90
11700;DHT22;5906;51.660;6.674;2023-07-30T07:27:48;17.70;99.90
11700;DHT22;5906;51.660;6.674;2023-07-30T07:30:15;17.80;99.90
11700;DHT22;5906;51.660;6.674;2023-07-30T07:32:42;17.80;99.90
11700;DHT22;5906;51.660;6.674;2023-07-30T07:35:10;17.90;99.90
11700;DHT22;5906;51.660;6.674;2023-07-30T07:37:37;17.90;99.90
11700;DHT22;5906;51.660;6.674;2023-07-30T07:40:04;17.90;99.90
11700;DHT22;5906;51.660;6.674;2023-07-30T07:42:31;17.90;99.90
11700;DHT22;5906;51.660;6.674;2023-07-30T07:44:59;18.00;99.90
11700;DHT22;5906;51.660;6.674;2023-07-30T07:47:26;18.20;99.90
11700;DHT22;5906;51.660;6.674;2023-07-30T07:49:53;18.30;99.90
11700;DHT22;5906;51.660;6.674;2023-07-30T07:52:20;18.30;99.90
11700;DHT22;5906;51.660;6.674;2023-07-30T07:54:47;18.40;99.90
11700;DHT22;5906;51.660;6.674;2023-07-30T07:57:15;18.40;99.90
11700;DHT22;5906;51.660;6.674;2023-07-30T07:59:42;18.30;99.90
11700;DHT22;5906;51.660;6.674;2023-07-30T08:02:12;18.30;99.90
11700;DHT22;5906;51.660;6.674;2023-07-30T08:04:39;18.30;99.90
11700;DHT22;5906;51.660;6.674;2023-07-30T08:07:07;18.30;99.90
11700;DHT22;5906;51.660;6.674;2023-07-30T08:09:34;18.40;99.90
11700;DHT22;5906;51.660;6.674;2023-07-30T08:12:01;18.40;99.90
11700;DHT22;5906;51.660;6.674;2023-07-30T08:14:29;18.40;99.90
11700;DHT22;5906;51.660;6.674;2023-07-30T08:16:57;18.40;99.90
11700;DHT22;5906;51.660;6.674;2023-07-30T08:19:23;18.50;99.90
11700;DHT22;5906;51.660;6.674;2023-07-30T08:21:51;18.50;99.90
11700;DHT22;5906;51.660;6.674;2023-07-30T08:24:18;18.70;99.90
11700;DHT22;5906;51.660;6.674;2023-07-30T08:26:45;18.80;99.90
11700;DHT22;5906;51.660;6.674;2023-07-30T08:29:13;18.90;99.90
11700;DHT22;5906;51.660;6.674;2023-07-30T08:31:41;19.00;99.90
11700;DHT22;5906;51.660;6.674;2023-07-30T08:34:08;19.00;99.90
11700;DHT22;5906;51.660;6.674;2023-07-30T08:36:37;19.00;99.90
11700;DHT22;5906;51.660;6.674;2023-07-30T08:39:05;19.00;99.90
11700;DHT22;5906;51.660;6.674;2023-07-30T08:41:32;19.10;99.90
11700;DHT22;5906;51.660;6.674;2023-07-30T08:43:59;19.30;99.90
11700;DHT22;5906;51.660;6.674;2023-07-30T08:46:27;19.40;99.90
11700;DHT22;5906;51.660;6.674;2023-07-30T08:48:54;19.40;99.90
11700;DHT22;5906;51.660;6.674;2023-07-30T08:51:25;19.50;99.90
11700;DHT22;5906;51.660;6.674;2023-07-30T08:53:53;19.70;99.90
11700;DHT22;5906;51.660;6.674;2023-07-30T08:56:21;19.60;99.90
11700;DHT22;5906;51.660;6.674;2023-07-30T08:58:49;19.50;99.90
11700;DHT22;5906;51.660;6.674;2023-07-30T09:01:18;19.60;99.90
11700;DHT22;5906;51.660;6.674;2023-07-30T09:03:48;19.80;99.90
11700;DHT22;5906;51.660;6.674;2023-07-30T09:06:16;19.90;99.90
11700;DHT22;5906;51.660;6.674;2023-07-30T09:08:44;20.10;99.90
11700;DHT22;5906;51.660;6.674;2023-07-30T09:11:11;20.40;99.90
11700;DHT22;5906;51.660;6.674;2023-07-30T09:13:40;20.80;99.90
11700;DHT22;5906;51.660;6.674;2023-07-30T09:16:09;21.10;99.90
11700;DHT22;5906;51.660;6.674;2023-07-30T09:18:41;21.30;99.90
11700;DHT22;5906;51.660;6.674;2023-07-30T09:21:13;21.20;99.90
11700;DHT22;5906;51.660;6.674;2023-07-30T09:23:41;21.30;99.90
11700;DHT22;5906;51.660;6.674;2023-07-30T09:26:09;21.00;99.90
11700;DHT22;5906;51.660;6.674;2023-07-30T09:28:37;20.90;99.90
11700;DHT22;5906;51.660;6.674;2023-07-30T09:31:05;20.90;99.90
11700;DHT22;5906;51.660;6.674;2023-07-30T09:33:47;21.10;99.90
11700;DHT22;5906;51.660;6.674;2023-07-30T09:36:16;21.10;99.90
11700;DHT22;5906;51.660;6.674;2023-07-30T09:38:45;21.00;99.90
11700;DHT22;5906;51.660;6.674;2023-07-30T09:41:13;20.70;99.90
11700;DHT22;5906;51.660;6.674;2023-07-30T09:43:41;21.00;99.90
11700;DHT22;5906;51.660;6.674;2023-07-30T09:46:09;21.10;99.90
11700;DHT22;5906;51.660;6.674;2023-07-30T09:48:36;21.20;99.90
11700;DHT22;5906;51.660;6.674;2023-07-30T09:51:04;21.40;99.90
11700;DHT22;5906;51.660;6.674;2023-07-30T09:53:33;21.50;99.90
11700;DHT22;5906;51.660;6.674;2023-07-30T09:56:05;21.60;99.90
11700;DHT22;5906;51.660;6.674;2023-07-30T09:58:34;21.20;99.90
11700;DHT22;5906;51.660;6.674;2023-07-30T10:01:05;21.10;99.90
11700;DHT22;5906;51.660;6.674;2023-07-30T10:03:35;21.10;99.90
11700;DHT22;5906;51.660;6.674;2023-07-30T10:06:03;20.90;99.90
11700;DHT22;5906;51.660;6.674;2023-07-30T10:08:35;20.90;99.90
11700;DHT22;5906;51.660;6.674;2023-07-30T10:11:08;20.80;99.90
11700;DHT22;5906;51.660;6.674;2023-07-30T10:13:36;20.70;99.90
11700;DHT22;5906;51.660;6.674;2023-07-30T10:16:11;20.80;99.90
11700;DHT22;5906;51.660;6.674;2023-07-30T10:21:21;20.80;99.90
11700;DHT22;5906;51.660;6.674;2023-07-30T10:24:03;21.00;99.90
11700;DHT22;5906;51.660;6.674;2023-07-30T10:26:34;21.30;99.90
11700;DHT22;5906;51.660;6.674;2023-07-30T10:29:19;21.50;99.90
11700;DHT22;5906;51.660;6.674;2023-07-30T10:31:53;21.70;99.90
11700;DHT22;5906;51.660;6.674;2023-07-30T10:34:26;21.70;99.90
11700;DHT22;5906;51.660;6.674;2023-07-30T10:36:57;21.70;99.90
11700;DHT22;5906;51.660;6.674;2023-07-30T10:39:27;22.00;99.90
11700;DHT22;5906;51.660;6.674;2023-07-30T10:41:57;22.20;99.90
11700;DHT22;5906;51.660;6.674;2023-07-30T10:44:31;22.30;98.40
11700;DHT22;5906;51.660;6.674;2023-07-30T10:47:00;22.40;98.70
11700;DHT22;5906;51.660;6.674;2023-07-30T10:49:27;22.70;97.10
11700;DHT22;5906;51.660;6.674;2023-07-30T10:51:56;22.60;94.70
11700;DHT22;5906;51.660;6.674;2023-07-30T10:54:36;22.40;96.60
11700;DHT22;5906;51.660;6.674;2023-07-30T10:57:04;22.40;96.80
11700;DHT22;5906;51.660;6.674;2023-07-30T10:59:36;22.30;96.30
11700;DHT22;5906;51.660;6.674;2023-07-30T11:02:04;22.10;97.20
11700;DHT22;5906;51.660;6.674;2023-07-30T11:04:34;21.90;96.50
11700;DHT22;5906;51.660;6.674;2023-07-30T11:07:02;22.00;97.70
11700;DHT22;5906;51.660;6.674;2023-07-30T11:09:31;22.00;99.40
11700;DHT22;5906;51.660;6.674;2023-07-30T11:11:58;22.20;99.90
11700;DHT22;5906;51.660;6.674;2023-07-30T11:14:25;22.50;99.40
11700;DHT22;5906;51.660;6.674;2023-07-30T11:16:57;22.80;96.50
11700;DHT22;5906;51.660;6.674;2023-07-30T11:19:28;22.80;94.80
11700;DHT22;5906;51.660;6.674;2023-07-30T11:21:56;22.80;95.00
11700;DHT22;5906;51.660;6.674;2023-07-30T11:24:34;22.40;92.40
11700;DHT22;5906;51.660;6.674;2023-07-30T11:27:02;22.20;92.90
11700;DHT22;5906;51.660;6.674;2023-07-30T11:29:29;21.80;94.60
11700;DHT22;5906;51.660;6.674;2023-07-30T11:31:58;21.70;96.90
11700;DHT22;5906;51.660;6.674;2023-07-30T11:34:26;21.70;99.00
11700;DHT22;5906;51.660;6.674;2023-07-30T11:36:54;21.70;97.00
11700;DHT22;5906;51.660;6.674;2023-07-30T11:39:23;21.70;99.10
11700;DHT22;5906;51.660;6.674;2023-07-30T11:41:51;21.20;99.90
11700;DHT22;5906;51.660;6.674;2023-07-30T11:44:35;20.60;99.90
11700;DHT22;5906;51.660;6.674;2023-07-30T11:47:06;19.80;99.90
11700;DHT22;5906;51.660;6.674;2023-07-30T11:49:33;19.30;99.90
11700;DHT22;5906;51.660;6.674;2023-07-30T11:52:07;19.00;99.90
11700;DHT22;5906;51.660;6.674;2023-07-30T11:54:36;18.70;99.90
11700;DHT22;5906;51.660;6.674;2023-07-30T11:57:03;18.40;99.90
11700;DHT22;5906;51.660;6.674;2023-07-30T11:59:31;18.10;99.90
11700;DHT22;5906;51.660;6.674;2023-07-30T12:01:59;18.10;99.90
11700;DHT22;5906;51.660;6.674;2023-07-30T12:04:31;18.10;99.90
11700;DHT22;5906;51.660;6.674;2023-07-30T12:06:58;18.20;99.90
11700;DHT22;5906;51.660;6.674;2023-07-30T12:09:26;18.20;99.90
11700;DHT22;5906;51.660;6.674;2023-07-30T12:11:58;18.40;99.90
11700;DHT22;5906;51.660;6.674;2023-07-30T12:14:28;18.60;99.90
11700;DHT22;5906;51.660;6.674;2023-07-30T12:16:58;18.90;99.90
11700;DHT22;5906;51.660;6.674;2023-07-30T12:19:26;19.00;99.90
11700;DHT22;5906;51.660;6.674;2023-07-30T12:21:53;19.20;99.90
11700;DHT22;5906;51.660;6.674;2023-07-30T12:24:20;19.10;99.90
11700;DHT22;5906;51.660;6.674;2023-07-30T12:26:49;19.20;99.90
11700;DHT22;5906;51.660;6.674;2023-07-30T12:29:20;19.20;99.90
11700;DHT22;5906;51.660;6.674;2023-07-30T12:31:47;19.00;99.90
11700;DHT22;5906;51.660;6.674;2023-07-30T12:34:15;18.90;99.90
11700;DHT22;5906;51.660;6.674;2023-07-30T12:36:42;19.00;99.90
11700;DHT22;5906;51.660;6.674;2023-07-30T12:39:09;19.00;99.90
11700;DHT22;5906;51.660;6.674;2023-07-30T12:41:36;19.10;99.90
11700;DHT22;5906;51.660;6.674;2023-07-30T12:44:04;19.10;99.90
11700;DHT22;5906;51.660;6.674;2023-07-30T12:46:32;19.20;99.90
11700;DHT22;5906;51.660;6.674;2023-07-30T12:48:59;19.30;99.90
11700;DHT22;5906;51.660;6.674;2023-07-30T12:51:32;19.50;99.90
11700;DHT22;5906;51.660;6.674;2023-07-30T12:54:00;19.70;99.90
11700;DHT22;5906;51.660;6.674;2023-07-30T12:56:27;19.80;99.90
11700;DHT22;5906;51.660;6.674;2023-07-30T12:58:54;19.90;99.90
11700;DHT22;5906;51.660;6.674;2023-07-30T13:01:21;19.90;99.90
11700;DHT22;5906;51.660;6.674;2023-07-30T13:03:50;19.80;99.90
11700;DHT22;5906;51.660;6.674;2023-07-30T13:06:18;19.80;99.90
11700;DHT22;5906;51.660;6.674;2023-07-30T13:08:45;19.70;99.90
11700;DHT22;5906;51.660;6.674;2023-07-30T13:11:12;19.60;99.90
11700;DHT22;5906;51.660;6.674;2023-07-30T13:13:39;19.80;99.90
11700;DHT22;5906;51.660;6.674;2023-07-30T13:16:06;20.00;99.90
11700;DHT22;5906;51.660;6.674;2023-07-30T13:18:33;20.40;99.90
11700;DHT22;5906;51.660;6.674;2023-07-30T13:21:01;20.70;99.90
11700;DHT22;5906;51.660;6.674;2023-07-30T13:23:28;20.90;99.90
11700;DHT22;5906;51.660;6.674;2023-07-30T13:25:55;21.10;99.90
11700;DHT22;5906;51.660;6.674;2023-07-30T13:28:22;21.30;99.90
11700;DHT22;5906;51.660;6.674;2023-07-30T13:30:49;21.60;99.90
11700;DHT22;5906;51.660;6.674;2023-07-30T13:33:18;21.70;99.90
11700;DHT22;5906;51.660;6.674;2023-07-30T13:35:45;21.90;99.90
11700;DHT22;5906;51.660;6.674;2023-07-30T13:38:12;22.00;99.90
11700;DHT22;5906;51.660;6.674;2023-07-30T13:40:39;22.00;99.90
11700;DHT22;5906;51.660;6.674;2023-07-30T13:43:06;21.90;99.90
11700;DHT22;5906;51.660;6.674;2023-07-30T13:45:33;21.70;99.90
11700;DHT22;5906;51.660;6.674;2023-07-30T13:48:00;21.60;99.90
11700;DHT22;5906;51.660;6.674;2023-07-30T13:50:27;21.50;99.90
11700;DHT22;5906;51.660;6.674;2023-07-30T13:52:54;21.40;99.90
11700;DHT22;5906;51.660;6.674;2023-07-30T13:55:21;21.20;99.90
11700;DHT22;5906;51.660;6.674;2023-07-30T13:57:48;21.10;99.90
11700;DHT22;5906;51.660;6.674;2023-07-30T14:00:16;21.20;99.90
11700;DHT22;5906;51.660;6.674;2023-07-30T14:02:44;21.30;99.90
11700;DHT22;5906;51.660;6.674;2023-07-30T14:05:11;21.40;99.90
11700;DHT22;5906;51.660;6.674;2023-07-30T14:07:38;21.50;99.90
11700;DHT22;5906;51.660;6.674;2023-07-30T14:10:09;21.60;99.90
11700;DHT22;5906;51.660;6.674;2023-07-30T14:12:36;21.70;99.90
11700;DHT22;5906;51.660;6.674;2023-07-30T14:15:03;21.80;99.90
11700;DHT22;5906;51.660;6.674;2023-07-30T14:17:31;22.20;99.90
11700;DHT22;5906;51.660;6.674;2023-07-30T14:19:58;22.40;99.90
11700;DHT22;5906;51.660;6.674;2023-07-30T14:22:25;22.60;99.90
11700;DHT22;5906;51.660;6.674;2023-07-30T14:24:52;22.60;97.80
11700;DHT22;5906;51.660;6.674;2023-07-30T14:27:19;22.40;94.30
11700;DHT22;5906;51.660;6.674;2023-07-30T14:29:46;22.20;93.60
11700;DHT22;5906;51.660;6.674;2023-07-30T14:32:13;22.20;95.60
11700;DHT22;5906;51.660;6.674;2023-07-30T14:34:40;22.20;96.20
11700;DHT22;5906;51.660;6.674;2023-07-30T14:37:07;22.20;97.40
11700;DHT22;5906;51.660;6.674;2023-07-30T14:39:36;22.20;94.40
11700;DHT22;5906;51.660;6.674;2023-07-30T14:42:04;22.10;93.20
11700;DHT22;5906;51.660;6.674;2023-07-30T14:44:31;22.10;94.10
11700;DHT22;5906;51.660;6.674;2023-07-30T14:46:58;22.10;93.40
11700;DHT22;5906;51.660;6.674;2023-07-30T14:49:27;22.10;94.30
11700;DHT22;5906;51.660;6.674;2023-07-30T14:51:54;22.10;92.80
11700;DHT22;5906;51.660;6.674;2023-07-30T14:54:21;22.10;93.90
11700;DHT22;5906;51.660;6.674;2023-07-30T14:56:48;22.00;93.40
11700;DHT22;5906;51.660;6.674;2023-07-30T14:59:15;22.00;95.20
11700;DHT22;5906;51.660;6.674;2023-07-30T15:01:42;21.90;95.10
11700;DHT22;5906;51.660;6.674;2023-07-30T15:04:09;21.90;96.10
11700;DHT22;5906;51.660;6.674;2023-07-30T15:06:36;21.90;99.60
11700;DHT22;5906;51.660;6.674;2023-07-30T15:09:04;22.20;98.90
11700;DHT22;5906;51.660;6.674;2023-07-30T15:11:32;22.40;96.20
11700;DHT22;5906;51.660;6.674;2023-07-30T15:13:59;22.50;96.40
11700;DHT22;5906;51.660;6.674;2023-07-30T15:16:26;22.30;95.20
11700;DHT22;5906;51.660;6.674;2023-07-30T15:18:53;22.30;94.40
11700;DHT22;5906;51.660;6.674;2023-07-30T15:21:25;22.30;94.50
11700;DHT22;5906;51.660;6.674;2023-07-30T15:23:52;22.40;93.50
11700;DHT22;5906;51.660;6.674;2023-07-30T15:26:19;22.40;94.00
11700;DHT22;5906;51.660;6.674;2023-07-30T15:28:47;22.40;94.70
11700;DHT22;5906;51.660;6.674;2023-07-30T15:31:14;22.40;94.10
11700;DHT22;5906;51.660;6.674;2023-07-30T15:33:42;22.20;92.90
11700;DHT22;5906;51.660;6.674;2023-07-30T15:36:10;22.20;94.00
11700;DHT22;5906;51.660;6.674;2023-07-30T15:38:37;22.20;95.10
11700;DHT22;5906;51.660;6.674;2023-07-30T15:41:04;22.20;93.50
11700;DHT22;5906;51.660;6.674;2023-07-30T15:43:31;22.20;93.60
11700;DHT22;5906;51.660;6.674;2023-07-30T15:45:58;22.40;94.70
11700;DHT22;5906;51.660;6.674;2023-07-30T15:48:29;22.30;94.10
11700;DHT22;5906;51.660;6.674;2023-07-30T15:50:56;22.20;94.40